Government of Jersey

Home Log in

Channel Islands Terminal Aerodrome Forecasts (TAFs)

Jersey Airport - EGJJ

EGJJ 281359Z 2815/2900 24020KT 4000 -DZ BR BKN004 TEMPO 2815/2818 9000 NSW BKN010 PROB30 TEMPO 2815/2822 0500 -RADZ FG BKN000 BECMG 2816/2818 21014KT RA TEMPO 2818/2822 1500 +RA BKN002 BKN020TCU BECMG 2821/2823 26022G35KT 9999 NSW SCT010 BKN015=

Guernsey Airport - EGJB

EGJB 281359Z 2815/2900 24020KT 3000 -DZ BR BKN003 TEMPO 2815/2818 9000 NSW BKN008 PROB40 TEMPO 2815/2821 0300 -RADZ FG BKN000 BECMG 2816/2818 21015KT RA TEMPO 2818/2821 1500 +RA BKN001 BKN020TCU BECMG 2820/2822 26022G35KT 9999 NSW SCT005 BKN010=

Alderney Airport - EGJA

EGJA 281359Z 2815/2900 25020KT 3000 -DZ BR BKN003 TEMPO 2815/2818 9000 NSW BKN008 PROB40 TEMPO 2815/2821 0300 -RADZ FG BKN000 BECMG 2816/2818 22015KT RA TEMPO 2818/2821 1500 +RA BKN001 BKN020TCU BECMG 2820/2822 26022G35KT 9999 NSW SCT005 BKN010=